createdAt,value
2022-09-02T00:02:26.194Z,6.65
2022-09-02T00:04:54.309Z,5.97
2022-09-02T00:07:22.383Z,7.10
2022-09-02T00:09:51.825Z,13.85
2022-09-02T00:12:19.981Z,6.68
2022-09-02T00:14:48.031Z,4.18
2022-09-02T00:17:16.099Z,4.40
2022-09-02T00:19:44.184Z,3.70
2022-09-02T00:22:12.307Z,9.30
2022-09-02T00:24:40.404Z,5.20
2022-09-02T00:27:09.879Z,5.78
2022-09-02T00:29:39.808Z,4.28
2022-09-02T00:32:08.188Z,7.45
2022-09-02T00:34:36.607Z,6.10
2022-09-02T00:37:05.211Z,4.53
2022-09-02T00:39:34.039Z,4.68
2022-09-02T00:42:02.517Z,3.92
2022-09-02T00:44:31.917Z,8.40
2022-09-02T00:47:00.147Z,4.72
2022-09-02T00:49:31.325Z,5.13
2022-09-02T00:52:05.937Z,3.22
2022-09-02T00:54:37.743Z,5.03
2022-09-02T00:57:10.880Z,6.22
2022-09-02T00:59:49.651Z,3.97
2022-09-02T01:02:18.448Z,6.90
2022-09-02T01:04:47.123Z,4.00
2022-09-02T01:07:16.211Z,3.13
2022-09-02T01:09:44.688Z,3.38
2022-09-02T01:12:15.061Z,4.53
2022-09-02T01:14:44.573Z,5.03
2022-09-02T01:17:12.666Z,3.40
2022-09-02T01:19:44.387Z,4.18
2022-09-02T01:22:19.326Z,4.50
2022-09-02T01:24:47.459Z,4.15
2022-09-02T01:27:18.153Z,3.30
2022-09-02T01:29:46.462Z,3.97
2022-09-02T01:32:14.556Z,8.27
2022-09-02T01:34:42.917Z,4.40
2022-09-02T01:37:11.386Z,5.97
2022-09-02T01:39:40.876Z,5.18
2022-09-02T01:42:09.256Z,4.25
2022-09-02T01:44:44.081Z,5.13
2022-09-02T01:47:13.052Z,7.50
2022-09-02T01:49:41.283Z,3.25
2022-09-02T01:52:09.878Z,4.97
2022-09-02T01:54:40.246Z,3.67
2022-09-02T01:57:09.778Z,3.72
2022-09-02T01:59:39.406Z,3.53
2022-09-02T02:02:08.926Z,5.35
2022-09-02T02:04:37.768Z,6.97
2022-09-02T02:07:08.180Z,5.85
2022-09-02T02:09:36.330Z,4.55
2022-09-02T02:12:07.965Z,4.53
2022-09-02T02:14:37.391Z,4.57
2022-09-02T02:17:05.928Z,5.65
2022-09-02T02:19:34.292Z,5.45
2022-09-02T02:22:03.245Z,5.32
2022-09-02T02:24:31.394Z,3.33
2022-09-02T02:26:59.528Z,8.05
2022-09-02T02:29:29.330Z,3.80
2022-09-02T02:31:57.573Z,3.03
2022-09-02T02:34:25.830Z,3.65
2022-09-02T02:36:53.980Z,4.55
2022-09-02T02:39:22.784Z,4.90
2022-09-02T02:41:50.836Z,4.50
2022-09-02T02:44:19.617Z,4.50
2022-09-02T02:46:48.995Z,4.38
2022-09-02T02:49:17.688Z,4.90
2022-09-02T02:51:45.783Z,3.20
2022-09-02T02:54:14.560Z,3.20
2022-09-02T02:56:43.274Z,3.65
2022-09-02T02:59:11.497Z,5.00
2022-09-02T03:01:39.938Z,4.28
2022-09-02T03:04:10.510Z,5.05
2022-09-02T03:06:38.628Z,2.70
2022-09-02T03:09:07.141Z,6.78
2022-09-02T03:11:37.335Z,8.50
2022-09-02T03:14:06.234Z,3.72
2022-09-02T03:16:36.311Z,3.95
2022-09-02T03:19:04.782Z,5.85
2022-09-02T03:21:38.840Z,5.00
2022-09-02T03:24:09.904Z,5.68
2022-09-02T03:26:39.181Z,5.18
2022-09-02T03:29:07.355Z,6.47
2022-09-02T03:31:36.293Z,5.20
2022-09-02T03:34:05.740Z,4.22
2022-09-02T03:36:40.010Z,4.40
2022-09-02T03:39:11.013Z,4.10
2022-09-02T03:41:42.012Z,4.40
2022-09-02T03:44:11.909Z,4.95
2022-09-02T03:46:41.190Z,2.95
2022-09-02T03:49:09.706Z,3.50
2022-09-02T03:51:41.757Z,3.92
2022-09-02T03:54:10.885Z,5.40
2022-09-02T03:56:40.511Z,6.00
2022-09-02T03:59:09.636Z,3.17
2022-09-02T04:01:38.265Z,7.20
2022-09-02T04:04:08.427Z,5.47
2022-09-02T04:06:40.195Z,5.93
2022-09-02T04:09:08.627Z,5.78
2022-09-02T04:11:42.762Z,9.93
2022-09-02T04:14:12.819Z,3.67
2022-09-02T04:16:41.613Z,5.60
2022-09-02T04:19:10.580Z,12.20
2022-09-02T04:21:43.043Z,4.95
2022-09-02T04:24:13.542Z,9.52
2022-09-02T04:26:46.140Z,5.85
2022-09-02T04:29:17.092Z,7.22
2022-09-02T04:31:48.858Z,7.97
2022-09-02T04:34:17.001Z,8.30
2022-09-02T04:36:46.791Z,2.88
2022-09-02T04:39:15.346Z,7.72
2022-09-02T04:41:43.567Z,4.47
2022-09-02T04:44:13.797Z,7.43
2022-09-02T04:46:45.253Z,12.30
2022-09-02T04:49:17.863Z,6.47
2022-09-02T04:51:48.409Z,9.02
2022-09-02T04:54:16.586Z,8.45
2022-09-02T04:56:48.830Z,5.82
2022-09-02T04:59:18.287Z,8.55
2022-09-02T05:01:55.187Z,9.32
2022-09-02T05:04:27.637Z,6.85
2022-09-02T05:06:58.775Z,12.60
2022-09-02T05:09:27.025Z,10.32
2022-09-02T05:12:09.075Z,15.20
2022-09-02T05:14:45.540Z,10.35
2022-09-02T05:17:14.313Z,9.18
2022-09-02T05:19:44.945Z,7.22
2022-09-02T05:22:16.809Z,8.15
2022-09-02T05:24:45.985Z,9.50
2022-09-02T05:27:16.619Z,10.30
2022-09-02T05:29:46.950Z,11.52
2022-09-02T05:32:17.681Z,9.13
2022-09-02T05:34:48.550Z,6.95
2022-09-02T05:37:19.107Z,8.65
2022-09-02T05:39:48.689Z,8.45
2022-09-02T05:42:19.747Z,8.23
2022-09-02T05:44:50.236Z,5.05
2022-09-02T05:47:21.277Z,8.82
2022-09-02T05:49:50.019Z,8.52
2022-09-02T05:52:19.625Z,11.73
2022-09-02T05:54:51.208Z,8.80
2022-09-02T05:57:22.881Z,7.82
2022-09-02T06:00:12.362Z,6.03
2022-09-02T06:02:53.382Z,7.97
2022-09-02T06:05:27.481Z,9.55
2022-09-02T06:08:07.203Z,7.03
2022-09-02T06:10:42.345Z,12.65
2022-09-02T06:13:12.409Z,4.43
2022-09-02T06:15:44.561Z,7.97
2022-09-02T06:18:14.310Z,6.03
2022-09-02T06:20:47.360Z,5.35
2022-09-02T06:23:18.805Z,6.35
2022-09-02T06:25:50.497Z,4.68
2022-09-02T06:28:20.023Z,4.53
2022-09-02T06:30:50.251Z,4.78
2022-09-02T06:33:23.202Z,3.17
2022-09-02T06:35:52.517Z,6.40
2022-09-02T06:38:22.852Z,4.32
2022-09-02T06:40:55.211Z,5.53
2022-09-02T06:43:42.646Z,8.05
2022-09-02T06:46:23.455Z,8.55
2022-09-02T06:48:55.650Z,2.25
2022-09-02T06:51:27.649Z,2.35
2022-09-02T06:53:58.899Z,4.53
2022-09-02T06:56:32.254Z,3.05
2022-09-02T06:59:00.418Z,5.25
2022-09-02T07:01:44.077Z,4.53
2022-09-02T07:04:33.471Z,5.10
2022-09-02T07:07:01.699Z,4.47
2022-09-02T07:09:34.677Z,2.22
2022-09-02T07:12:10.508Z,3.42
2022-09-02T07:14:45.683Z,4.22
2022-09-02T07:17:17.780Z,2.45
2022-09-02T07:19:49.963Z,6.18
2022-09-02T07:22:18.936Z,6.32
2022-09-02T07:24:49.285Z,4.15
2022-09-02T07:27:20.510Z,2.83
2022-09-02T07:29:50.781Z,2.92
2022-09-02T07:32:19.999Z,4.25
2022-09-02T07:34:49.467Z,2.72
2022-09-02T07:37:17.546Z,5.85
2022-09-02T07:39:46.149Z,4.15
2022-09-02T07:42:19.653Z,11.02
2022-09-02T07:44:48.205Z,9.05
2022-09-02T07:47:16.963Z,2.97
2022-09-02T07:52:35.923Z,3.90
2022-09-02T07:55:04.043Z,2.97
2022-09-02T07:57:33.809Z,4.68
2022-09-02T08:00:03.041Z,2.50
2022-09-02T08:02:42.302Z,3.22
2022-09-02T08:05:14.537Z,2.13
2022-09-02T08:07:42.715Z,2.58
2022-09-02T08:10:13.095Z,1.48
2022-09-02T08:12:44.008Z,2.03
2022-09-02T08:15:13.570Z,1.27
2022-09-02T08:17:42.065Z,3.08
2022-09-02T08:20:12.694Z,5.47
2022-09-02T08:22:41.567Z,2.28
2022-09-02T08:25:10.985Z,6.75
2022-09-02T08:27:42.636Z,2.35
2022-09-02T08:30:11.680Z,3.88
2022-09-02T08:32:40.742Z,1.13
2022-09-02T08:35:11.015Z,4.05
2022-09-02T08:37:39.894Z,2.72
2022-09-02T08:40:14.310Z,5.78
2022-09-02T08:42:49.657Z,2.55
2022-09-02T08:45:26.501Z,3.08
2022-09-02T08:48:04.255Z,3.60
2022-09-02T08:50:33.757Z,2.88
2022-09-02T08:53:09.092Z,4.68
2022-09-02T08:55:44.494Z,2.55
2022-09-02T08:58:18.717Z,2.83
2022-09-02T09:00:52.940Z,4.30
2022-09-02T09:03:27.275Z,2.20
2022-09-02T09:06:02.930Z,2.15
2022-09-02T09:08:38.319Z,2.55
2022-09-02T09:11:16.106Z,4.25
2022-09-02T09:14:02.399Z,8.32
2022-09-02T09:16:40.293Z,1.67
2022-09-02T09:19:14.121Z,1.02
2022-09-02T09:21:43.226Z,0.93
2022-09-02T09:24:23.280Z,0.85
2022-09-02T09:26:51.416Z,2.63
2022-09-02T09:29:20.760Z,1.08
2022-09-02T09:31:54.590Z,4.70
2022-09-02T09:34:23.084Z,2.88
2022-09-02T09:36:54.541Z,1.10
2022-09-02T09:39:25.896Z,1.98
2022-09-02T09:41:55.670Z,3.63
2022-09-02T09:44:48.316Z,3.45
2022-09-02T09:47:19.740Z,2.10
2022-09-02T09:49:51.537Z,0.90
2022-09-02T09:52:27.855Z,1.55
2022-09-02T09:55:13.954Z,1.92
2022-09-02T09:57:44.760Z,2.97
2022-09-02T10:00:32.198Z,4.10
2022-09-02T10:03:03.577Z,1.67
2022-09-02T10:05:35.290Z,2.35
2022-09-02T10:08:10.157Z,3.67
2022-09-02T10:10:57.917Z,3.08
2022-09-02T10:13:29.710Z,1.55
2022-09-02T10:16:26.034Z,4.10
2022-09-02T10:18:57.077Z,4.65
2022-09-02T10:21:37.000Z,2.95
2022-09-02T10:24:20.414Z,1.40
2022-09-02T10:26:51.258Z,1.33
2022-09-02T10:29:48.349Z,2.92
2022-09-02T10:32:29.156Z,3.03
2022-09-02T10:35:11.200Z,0.93
2022-09-02T10:37:46.780Z,4.00
2022-09-02T10:40:17.645Z,1.45
2022-09-02T10:42:55.774Z,1.83
2022-09-02T10:45:31.710Z,1.10
2022-09-02T10:48:14.604Z,1.45
2022-09-02T10:50:53.374Z,2.67
2022-09-02T10:53:37.216Z,1.65
2022-09-02T10:56:09.262Z,0.70
2022-09-02T10:58:46.774Z,1.80
2022-09-02T11:01:20.639Z,1.45
2022-09-02T11:04:04.939Z,3.85
2022-09-02T11:07:00.971Z,0.80
2022-09-02T11:09:33.930Z,2.22
2022-09-02T11:12:08.679Z,1.65
2022-09-02T11:14:47.046Z,0.50
2022-09-02T11:17:23.349Z,2.47
2022-09-02T11:19:58.742Z,1.27
2022-09-02T11:22:31.526Z,2.33
2022-09-02T11:25:04.592Z,1.50
2022-09-02T11:27:42.649Z,3.97
2022-09-02T11:30:14.965Z,1.17
2022-09-02T11:32:50.478Z,1.67
2022-09-02T11:35:24.805Z,2.20
2022-09-02T11:37:57.199Z,1.15
2022-09-02T11:40:36.798Z,1.58
2022-09-02T11:43:28.481Z,1.17
2022-09-02T11:46:19.198Z,1.00
2022-09-02T11:49:18.584Z,1.10
2022-09-02T11:52:03.848Z,3.60
2022-09-02T11:54:37.675Z,1.65
2022-09-02T11:57:07.930Z,1.20
2022-09-02T12:00:15.584Z,0.88
2022-09-02T12:02:48.197Z,1.95
2022-09-02T12:05:52.662Z,0.98
2022-09-02T12:09:10.865Z,1.20
2022-09-02T12:11:54.872Z,5.40
2022-09-02T12:15:05.941Z,0.60
2022-09-02T12:17:40.216Z,1.27
2022-09-02T12:20:11.797Z,1.08
2022-09-02T12:22:42.128Z,3.05
2022-09-02T12:25:38.387Z,2.05
2022-09-02T12:28:27.422Z,1.52
2022-09-02T12:31:38.581Z,2.30
2022-09-02T12:34:49.129Z,1.33
2022-09-02T12:37:47.202Z,0.70
2022-09-02T12:40:29.798Z,0.90
2022-09-02T12:43:04.070Z,0.93
2022-09-02T12:45:34.675Z,0.63
2022-09-02T12:48:10.571Z,2.10
2022-09-02T12:50:55.502Z,1.50
2022-09-02T12:53:33.433Z,1.48
2022-09-02T12:56:04.388Z,2.88
2022-09-02T12:58:36.856Z,1.13
2022-09-02T13:01:17.603Z,2.15
2022-09-02T13:04:09.340Z,1.13
2022-09-02T13:06:53.592Z,4.72
2022-09-02T13:09:48.010Z,1.67
2022-09-02T13:12:51.808Z,3.25
2022-09-02T13:15:29.013Z,0.52
2022-09-02T13:18:30.359Z,1.30
2022-09-02T13:21:13.276Z,2.78
2022-09-02T13:24:20.568Z,1.55
2022-09-02T13:27:09.793Z,1.73
2022-09-02T13:30:05.952Z,2.33
2022-09-02T13:32:35.308Z,0.88
2022-09-02T13:35:07.778Z,1.52
2022-09-02T13:37:38.660Z,4.80
2022-09-02T13:40:17.814Z,3.47
2022-09-02T13:42:49.930Z,2.95
2022-09-02T13:45:20.446Z,2.13
2022-09-02T13:47:51.514Z,2.85
2022-09-02T13:50:23.208Z,3.55
2022-09-02T13:53:45.006Z,1.70
2022-09-02T13:55:49.487Z,7.38
2022-09-02T13:58:26.632Z,2.08
2022-09-02T14:00:58.439Z,5.38
2022-09-02T14:03:33.544Z,2.20
2022-09-02T14:06:03.753Z,1.65
2022-09-02T14:08:32.440Z,2.78
2022-09-02T14:11:06.832Z,1.55
2022-09-02T14:13:36.789Z,1.08
2022-09-02T14:16:29.342Z,3.60
2022-09-02T14:19:11.600Z,0.98
2022-09-02T14:21:47.563Z,3.42
2022-09-02T14:24:19.710Z,3.33
2022-09-02T14:26:51.390Z,0.73
2022-09-02T14:29:21.488Z,1.17
2022-09-02T14:32:09.929Z,0.63
2022-09-02T14:34:39.953Z,0.93
2022-09-02T14:37:22.117Z,1.23
2022-09-02T14:40:08.476Z,1.80
2022-09-02T14:42:45.693Z,3.60
2022-09-02T14:45:14.584Z,0.47
2022-09-02T14:47:43.550Z,3.50
2022-09-02T14:50:15.539Z,3.65
2022-09-02T14:52:50.343Z,3.88
2022-09-02T14:55:50.443Z,3.92
2022-09-02T14:58:19.532Z,4.05
2022-09-02T15:00:55.722Z,1.25
2022-09-02T15:03:24.657Z,2.88
2022-09-02T15:05:53.902Z,2.42
2022-09-02T15:08:23.798Z,4.72
2022-09-02T15:10:54.254Z,3.05
2022-09-02T15:13:32.488Z,0.93
2022-09-02T15:16:00.697Z,2.83
2022-09-02T15:18:28.740Z,3.83
2022-09-02T15:20:57.647Z,4.30
2022-09-02T15:23:27.325Z,2.75
2022-09-02T15:25:57.201Z,1.83
2022-09-02T15:28:25.277Z,2.55
2022-09-02T15:30:58.762Z,2.65
2022-09-02T15:33:27.479Z,2.30
2022-09-02T15:35:55.765Z,1.20
2022-09-02T15:38:23.886Z,2.53
2022-09-02T15:40:53.496Z,2.25
2022-09-02T15:43:22.264Z,1.02
2022-09-02T15:45:50.591Z,4.95
2022-09-02T15:48:18.907Z,1.73
2022-09-02T15:50:46.922Z,1.15
2022-09-02T15:53:16.262Z,2.40
2022-09-02T15:55:44.631Z,2.15
2022-09-02T15:58:14.071Z,1.30
2022-09-02T16:00:43.866Z,4.25
2022-09-02T16:03:12.221Z,1.05
2022-09-02T16:05:43.205Z,0.90
2022-09-02T16:08:11.609Z,1.80
2022-09-02T16:10:40.582Z,2.35
2022-09-02T16:13:08.619Z,2.35
2022-09-02T16:15:38.023Z,3.13
2022-09-02T16:18:06.290Z,8.90
2022-09-02T16:20:34.326Z,2.45
2022-09-02T16:23:02.506Z,2.15
2022-09-02T16:25:30.793Z,1.50
2022-09-02T16:27:59.243Z,0.50
2022-09-02T16:30:27.658Z,2.67
2022-09-02T16:32:57.162Z,3.90
2022-09-02T16:35:25.240Z,2.13
2022-09-02T16:37:56.982Z,2.13
2022-09-02T16:40:25.188Z,1.35
2022-09-02T16:42:53.200Z,3.47
2022-09-02T16:45:21.402Z,0.90
2022-09-02T16:47:49.557Z,0.85
2022-09-02T16:50:18.961Z,0.82
2022-09-02T16:52:47.313Z,2.08
2022-09-02T16:55:18.917Z,2.05
2022-09-02T16:57:47.015Z,2.08
2022-09-02T17:00:16.816Z,2.13
2022-09-02T17:02:45.261Z,1.20
2022-09-02T17:05:17.354Z,6.13
2022-09-02T17:07:46.938Z,2.30
2022-09-02T17:10:14.988Z,5.35
2022-09-02T17:12:43.458Z,2.17
2022-09-02T17:15:11.774Z,1.55
2022-09-02T17:17:40.574Z,1.75
2022-09-02T17:20:09.618Z,1.55
2022-09-02T17:22:37.778Z,2.67
2022-09-02T17:25:08.357Z,3.00
2022-09-02T17:27:37.604Z,3.10
2022-09-02T17:30:06.596Z,2.10
2022-09-02T17:32:34.787Z,5.40
2022-09-02T17:35:03.177Z,4.93
2022-09-02T17:37:31.631Z,3.40
2022-09-02T17:39:59.787Z,8.75
2022-09-02T17:42:28.321Z,4.18
2022-09-02T17:44:57.586Z,8.43
2022-09-02T17:47:26.617Z,4.28
2022-09-02T17:49:54.665Z,7.53
2022-09-02T17:52:24.837Z,4.15
2022-09-02T17:54:55.174Z,5.82
2022-09-02T17:57:33.531Z,5.38
2022-09-02T18:00:09.933Z,5.85
2022-09-02T18:03:13.992Z,5.65
2022-09-02T18:05:57.208Z,8.27
2022-09-02T18:08:34.665Z,3.25
2022-09-02T18:11:05.313Z,5.38
2022-09-02T18:13:42.741Z,8.98
2022-09-02T18:16:29.441Z,6.55
2022-09-02T18:19:09.280Z,6.10
2022-09-02T18:21:58.973Z,4.38
2022-09-02T18:24:40.951Z,5.13
2022-09-02T18:27:17.019Z,5.50
2022-09-02T18:30:00.215Z,7.00
2022-09-02T18:32:42.699Z,7.38
2022-09-02T18:35:22.188Z,5.60
2022-09-02T18:38:01.802Z,7.80
2022-09-02T18:40:39.867Z,7.70
2022-09-02T18:43:19.698Z,6.88
2022-09-02T18:45:50.999Z,8.13
2022-09-02T18:48:23.094Z,3.75
2022-09-02T18:50:54.441Z,5.28
2022-09-02T18:53:24.423Z,8.30
2022-09-02T18:55:54.197Z,4.28
2022-09-02T18:58:35.009Z,5.97
2022-09-02T19:01:08.123Z,6.20
2022-09-02T19:03:37.856Z,7.95
2022-09-02T19:06:08.372Z,5.82
2022-09-02T19:08:38.311Z,6.90
2022-09-02T19:11:08.796Z,7.18
2022-09-02T19:13:46.039Z,4.97
2022-09-02T19:16:17.211Z,4.85
2022-09-02T19:18:45.341Z,7.53
2022-09-02T19:21:18.980Z,8.52
2022-09-02T19:23:48.795Z,6.80
2022-09-02T19:26:17.395Z,6.68
2022-09-02T19:28:48.478Z,7.68
2022-09-02T19:31:22.021Z,7.68
2022-09-02T19:33:52.832Z,6.53
2022-09-02T19:36:21.980Z,7.32
2022-09-02T19:38:50.272Z,5.18
2022-09-02T19:41:18.487Z,10.57
2022-09-02T19:43:46.810Z,5.72
2022-09-02T19:46:43.957Z,7.88
2022-09-02T19:49:04.996Z,9.15
2022-09-02T19:51:33.057Z,11.80
2022-09-02T19:54:01.083Z,8.48
2022-09-02T19:56:29.375Z,9.43
2022-09-02T19:58:57.466Z,9.93
2022-09-02T20:01:25.685Z,14.10
2022-09-02T20:03:53.938Z,7.45
2022-09-02T20:06:23.396Z,11.55
2022-09-02T20:08:51.749Z,4.00
2022-09-02T20:11:20.094Z,10.48
2022-09-02T20:13:49.376Z,7.88
2022-09-02T20:16:20.478Z,6.00
2022-09-02T20:18:49.426Z,11.00
2022-09-02T20:21:22.462Z,9.15
2022-09-02T20:23:53.891Z,10.35
2022-09-02T20:26:35.122Z,11.32
2022-09-02T20:29:16.574Z,9.23
2022-09-02T20:31:58.976Z,10.75
2022-09-02T20:34:46.792Z,8.48
2022-09-02T20:37:27.543Z,11.07
2022-09-02T20:40:27.099Z,15.98
2022-09-02T20:43:25.581Z,10.68
2022-09-02T20:45:59.154Z,8.52
2022-09-02T20:48:43.854Z,9.25
2022-09-02T20:51:16.856Z,7.55
2022-09-02T20:54:02.062Z,14.95
2022-09-02T20:56:39.429Z,8.07
2022-09-02T20:59:16.368Z,13.57
2022-09-02T21:01:45.862Z,12.13
2022-09-02T21:04:29.242Z,11.57
2022-09-02T21:07:02.516Z,13.13
2022-09-02T21:09:41.974Z,15.30
2022-09-02T21:12:22.095Z,11.75
2022-09-02T21:14:55.811Z,9.63
2022-09-02T21:17:34.649Z,11.77
2022-09-02T21:20:09.927Z,7.93
2022-09-02T21:22:41.631Z,9.05
2022-09-02T21:25:16.555Z,9.32
2022-09-02T21:27:54.521Z,9.95
2022-09-02T21:30:24.070Z,9.80
2022-09-02T21:32:55.530Z,9.45
2022-09-02T21:35:27.309Z,17.13
2022-09-02T21:38:02.859Z,13.45
2022-09-02T21:40:44.739Z,13.15
2022-09-02T21:43:31.302Z,8.90
2022-09-02T21:46:09.651Z,9.40
2022-09-02T21:48:47.836Z,12.68
2022-09-02T21:51:23.724Z,9.38
2022-09-02T21:54:00.751Z,13.55
2022-09-02T21:56:45.797Z,11.25
2022-09-02T21:59:28.436Z,11.13
2022-09-02T22:02:03.475Z,12.38
2022-09-02T22:04:50.066Z,11.27
2022-09-02T22:07:22.705Z,11.02
2022-09-02T22:09:58.881Z,9.50
2022-09-02T22:12:27.282Z,12.40
2022-09-02T22:15:07.754Z,7.55
2022-09-02T22:17:45.919Z,10.77
2022-09-02T22:20:18.914Z,10.30
2022-09-02T22:22:53.365Z,11.13
2022-09-02T22:25:22.677Z,8.20
2022-09-02T22:27:55.200Z,9.80
2022-09-02T22:30:24.741Z,9.80
2022-09-02T22:33:02.718Z,13.43
2022-09-02T22:35:36.813Z,9.93
2022-09-02T22:38:10.489Z,8.07
2022-09-02T22:40:45.457Z,11.18
2022-09-02T22:43:17.566Z,9.45
2022-09-02T22:46:13.482Z,9.27
2022-09-02T22:49:04.932Z,6.95
2022-09-02T22:51:56.214Z,12.35
2022-09-02T22:54:26.231Z,8.50
2022-09-02T22:57:01.724Z,9.38
2022-09-02T22:59:42.868Z,13.95
2022-09-02T23:02:20.985Z,11.35
2022-09-02T23:05:05.320Z,10.80
2022-09-02T23:07:33.430Z,8.77
2022-09-02T23:10:02.649Z,8.98
2022-09-02T23:12:37.961Z,13.88
2022-09-02T23:15:20.118Z,10.25
2022-09-02T23:17:57.921Z,11.55
2022-09-02T23:20:40.263Z,7.90
2022-09-02T23:23:28.932Z,9.63
2022-09-02T23:26:11.322Z,11.98
2022-09-02T23:29:00.900Z,10.88
2022-09-02T23:31:40.350Z,7.60
2022-09-02T23:34:24.832Z,11.23
2022-09-02T23:37:04.638Z,7.63
2022-09-02T23:39:49.214Z,11.25
2022-09-02T23:42:17.771Z,12.23
2022-09-02T23:44:46.167Z,9.25
2022-09-02T23:47:37.468Z,10.85
2022-09-02T23:50:20.479Z,10.15
2022-09-02T23:52:56.648Z,8.32
2022-09-02T23:55:38.991Z,9.13
2022-09-02T23:58:28.647Z,9.57
